Springfield, OH (45505)

5:59 AM EDT on August 25, 2016 (GMT -0400)
Werner Ent. Springfield, OH | | Change Station

Elev 1048 ft 39.90 °N, 83.73 °W | Updated 1 minute ago

Rain
Rain
75.5 °F
Feels Like 74 °F
N
2.0
Wind Variable Wind from WNW
Gusts 4.0 mph

Today
High -- | Low -- °F
--% Chance of Precip.
Yesterday
High -- | Low -- °F
Precip. -- in
Pressure 30.06 in
Visibility 6.0 miles
Clouds Mostly Cloudy 1600 ft
Overcast 2100 ft
Heat Index 74 °F
Dew Point 74 °F
Humidity 95%
Rainfall 0.48 in
Snow Depth Not available.
6:56 AM 8:16 PM
Waning Gibbous, 47% visible
METAR KSGH 250956Z AUTO 09003KT 6SM BR BKN016 OVC021 22/22 A3008 RMK AO2 TSE04B08E26RAE05 SLP177 P0000 T02220222
Pressure 30.06 in
Visibility 6.0 miles
Clouds Mostly Cloudy 1600 ft
Overcast 2100 ft
Heat Index 74 °F
Dew Point 74 °F
Humidity 95%
Rainfall 0.48 in
Snow Depth Not available.
6:56 AM 8:16 PM
Waning Gibbous, 47% visible
METAR KSGH 250956Z AUTO 09003KT 6SM BR BKN016 OVC021 22/22 A3008 RMK AO2 TSE04B08E26RAE05 SLP177 P0000 T02220222

10-Day Weather Forecast

Almanac

Astronomy

Aug. 25, 2016 Rise Set
Actual Time
Civil Twilight
Nautical Twilight
Astronomical Twilight
Moon
Length of Visible Light
Length of Day
Tomorrow will be .
, % of the Moon is Illuminated

Today's Extremes

State Highs State Lows

Community

WunderPhotos

Upload Photos

1,934,818 photos uploaded!

WunderBlog® & News

Nearby

Air Quality

  Air Quality AQ Index Pollutant
Not available.

Snow Depth

Station Depth Elevation

Earthquake Activity

City Distance Mag. Time & Date
Minimum magnitude displayed is 2.5.

Coastal Water Temperatures

Place Temperature

Stations

Nearby Weather Stations

Station Location Temp. Windchill Dew Point Humidity Wind Precip. Elev Updated Type
                   

Watches & Warnings

There are currently no watches in effect.